createdAt,value
2023-02-11T00:01:46.662Z,9.80
2023-02-11T00:04:48.304Z,9.73
2023-02-11T00:07:50.016Z,9.25
2023-02-11T00:10:53.483Z,8.65
2023-02-11T00:13:55.195Z,9.55
2023-02-11T00:16:56.876Z,10.20
2023-02-11T00:19:58.572Z,8.15
2023-02-11T00:23:00.181Z,9.13
2023-02-11T00:26:01.938Z,8.98
2023-02-11T00:29:04.565Z,8.82
2023-02-11T00:32:07.209Z,11.02
2023-02-11T00:35:08.882Z,9.65
2023-02-11T00:38:10.523Z,8.77
2023-02-11T00:41:14.718Z,9.00
2023-02-11T00:44:16.660Z,9.07
2023-02-11T00:47:18.357Z,8.98
2023-02-11T00:50:20.126Z,10.70
2023-02-11T00:53:23.177Z,10.20
2023-02-11T00:56:24.890Z,9.88
2023-02-11T00:59:27.047Z,9.55
2023-02-11T01:02:28.892Z,10.70
2023-02-11T01:05:30.717Z,9.15
2023-02-11T01:08:32.363Z,8.77
2023-02-11T01:11:33.998Z,9.40
2023-02-11T01:14:35.696Z,9.23
2023-02-11T01:17:37.511Z,8.70
2023-02-11T01:20:39.221Z,8.25
2023-02-11T01:23:40.889Z,7.78
2023-02-11T01:26:42.526Z,7.50
2023-02-11T01:29:44.149Z,7.90
2023-02-11T01:32:45.778Z,8.70
2023-02-11T01:35:47.909Z,8.25
2023-02-11T01:38:50.011Z,8.57
2023-02-11T01:41:55.112Z,8.90
2023-02-11T01:44:57.766Z,9.23
2023-02-11T01:48:02.626Z,8.68
2023-02-11T01:51:13.163Z,8.27
2023-02-11T01:54:37.975Z,8.55
2023-02-11T01:57:42.552Z,7.85
2023-02-11T02:00:44.282Z,8.20
2023-02-11T02:03:52.403Z,8.07
2023-02-11T02:07:02.746Z,8.43
2023-02-11T02:10:09.688Z,7.53
2023-02-11T02:13:12.086Z,7.78
2023-02-11T02:16:17.014Z,8.80
2023-02-11T02:19:37.315Z,8.27
2023-02-11T02:23:08.567Z,7.75
2023-02-11T02:26:19.731Z,7.95
2023-02-11T02:29:49.115Z,7.97
2023-02-11T02:33:23.454Z,7.60
2023-02-11T02:36:33.835Z,8.02
2023-02-11T02:39:37.113Z,8.90
2023-02-11T02:42:41.207Z,8.55
2023-02-11T02:45:42.905Z,9.13
2023-02-11T02:48:45.830Z,8.38
2023-02-11T02:52:05.383Z,8.30
2023-02-11T02:55:20.704Z,9.35
2023-02-11T02:59:04.137Z,6.97
2023-02-11T03:02:23.483Z,7.50
2023-02-11T03:05:34.847Z,7.43
2023-02-11T03:08:46.254Z,8.48
2023-02-11T03:11:48.316Z,7.10
2023-02-11T03:14:52.243Z,7.47
2023-02-11T03:17:58.815Z,7.57
2023-02-11T03:21:02.507Z,8.05
2023-02-11T03:24:10.894Z,8.23
2023-02-11T03:27:43.929Z,7.13
2023-02-11T03:31:30.917Z,6.32
2023-02-11T03:35:03.415Z,7.97
2023-02-11T03:38:14.876Z,9.57
2023-02-11T03:41:19.988Z,7.85
2023-02-11T03:44:25.247Z,7.80
2023-02-11T03:47:29.020Z,7.35
2023-02-11T03:50:35.100Z,5.45
2023-02-11T03:53:39.029Z,6.85
2023-02-11T03:56:55.759Z,6.65
2023-02-11T03:59:59.381Z,7.78
2023-02-11T04:03:01.415Z,5.47
2023-02-11T04:06:03.077Z,5.95
2023-02-11T04:09:04.898Z,5.47
2023-02-11T04:12:07.003Z,6.43
2023-02-11T04:15:08.925Z,5.60
2023-02-11T04:18:10.706Z,5.93
2023-02-11T04:21:12.402Z,6.03
2023-02-11T04:24:14.035Z,6.30
2023-02-11T04:27:15.844Z,6.65
2023-02-11T04:30:17.509Z,6.47
2023-02-11T04:33:19.181Z,6.05
2023-02-11T04:36:20.883Z,6.60
2023-02-11T04:39:22.464Z,5.65
2023-02-11T04:42:24.468Z,5.95
2023-02-11T04:45:26.156Z,6.65
2023-02-11T04:48:27.733Z,8.35
2023-02-11T04:51:29.722Z,7.55
2023-02-11T04:54:31.388Z,7.45
2023-02-11T04:57:33.037Z,7.88
2023-02-11T05:00:34.720Z,7.50
2023-02-11T05:03:36.682Z,7.50
2023-02-11T05:06:39.840Z,7.13
2023-02-11T05:09:41.592Z,6.68
2023-02-11T05:12:43.209Z,4.82
2023-02-11T05:15:44.942Z,5.93
2023-02-11T05:18:46.992Z,5.32
2023-02-11T05:22:01.786Z,6.13
2023-02-11T05:25:04.733Z,6.30
2023-02-11T05:28:06.904Z,6.85
2023-02-11T05:31:09.948Z,7.18
2023-02-11T05:34:11.594Z,6.78
2023-02-11T05:37:13.347Z,6.93
2023-02-11T05:40:15.260Z,7.97
2023-02-11T05:43:17.014Z,7.68
2023-02-11T05:46:19.149Z,7.53
2023-02-11T05:49:20.796Z,8.68
2023-02-11T05:52:23.371Z,7.90
2023-02-11T05:55:25.028Z,8.20
2023-02-11T05:58:26.884Z,5.53
2023-02-11T06:01:28.519Z,8.18
2023-02-11T06:04:30.462Z,7.68
2023-02-11T06:07:32.135Z,8.32
2023-02-11T06:10:33.795Z,8.05
2023-02-11T06:13:35.894Z,7.63
2023-02-11T06:16:38.182Z,9.60
2023-02-11T06:19:39.831Z,12.15
2023-02-11T06:22:41.484Z,16.17
2023-02-11T06:25:43.149Z,16.58
2023-02-11T06:28:45.221Z,10.77
2023-02-11T06:31:47.042Z,8.35
2023-02-11T06:34:48.777Z,12.30
2023-02-11T06:37:50.448Z,9.02
2023-02-11T06:40:52.110Z,9.10
2023-02-11T06:43:53.814Z,9.05
2023-02-11T06:46:55.641Z,8.25
2023-02-11T06:49:57.317Z,8.68
2023-02-11T06:52:59.987Z,8.00
2023-02-11T06:56:06.869Z,7.15
2023-02-11T06:59:08.571Z,16.55
2023-02-11T07:02:10.850Z,11.18
2023-02-11T07:05:12.598Z,10.23
2023-02-11T07:08:14.332Z,9.55
2023-02-11T07:11:20.040Z,16.95
2023-02-11T07:14:21.692Z,22.23
2023-02-11T07:17:23.446Z,10.07
2023-02-11T07:20:26.112Z,10.57
2023-02-11T07:23:28.549Z,8.63
2023-02-11T07:26:30.224Z,12.55
2023-02-11T07:29:31.970Z,21.58
2023-02-11T07:32:33.620Z,12.93
2023-02-11T07:35:35.269Z,9.18
2023-02-11T07:38:37.408Z,10.70
2023-02-11T07:41:39.069Z,10.02
2023-02-11T07:44:41.181Z,10.45
2023-02-11T07:47:42.931Z,10.18
2023-02-11T07:50:44.659Z,11.15
2023-02-11T07:53:47.007Z,11.57
2023-02-11T07:56:48.633Z,9.52
2023-02-11T07:59:50.253Z,9.82
2023-02-11T08:02:51.908Z,9.50
2023-02-11T08:05:53.610Z,11.98
2023-02-11T08:08:55.685Z,12.32
2023-02-11T08:11:57.383Z,23.20
2023-02-11T08:14:59.157Z,17.73
2023-02-11T08:18:00.785Z,14.18
2023-02-11T08:21:07.206Z,12.77
2023-02-11T08:24:08.993Z,13.43
2023-02-11T08:27:10.742Z,16.20
2023-02-11T08:30:13.431Z,14.30
2023-02-11T08:33:15.189Z,15.48
2023-02-11T08:36:21.194Z,17.75
2023-02-11T08:39:23.145Z,14.60
2023-02-11T08:42:24.776Z,22.73
2023-02-11T08:45:26.422Z,16.77
2023-02-11T08:48:28.728Z,16.58
2023-02-11T08:51:31.590Z,15.38
2023-02-11T08:54:33.317Z,16.88
2023-02-11T08:57:34.991Z,15.02
2023-02-11T09:00:36.627Z,16.20
2023-02-11T09:03:38.289Z,14.27
2023-02-11T09:06:40.224Z,14.93
2023-02-11T09:09:41.867Z,14.98
2023-02-11T09:12:43.491Z,16.80
2023-02-11T09:15:46.812Z,14.98
2023-02-11T09:18:49.418Z,19.20
2023-02-11T09:21:51.125Z,16.38
2023-02-11T09:24:52.778Z,17.75
2023-02-11T09:27:54.617Z,14.85
2023-02-11T09:30:56.290Z,15.75
2023-02-11T09:34:00.816Z,13.75
2023-02-11T09:37:02.531Z,12.63
2023-02-11T09:40:04.932Z,13.68
2023-02-11T09:43:15.492Z,13.60
2023-02-11T09:46:18.847Z,13.02
2023-02-11T09:49:26.532Z,10.98
2023-02-11T09:52:41.821Z,10.55
2023-02-11T09:55:46.540Z,10.00
2023-02-11T09:58:48.214Z,10.77
2023-02-11T10:01:56.626Z,11.38
2023-02-11T10:05:21.006Z,12.02
2023-02-11T10:08:31.843Z,10.95
2023-02-11T10:12:12.675Z,11.52
2023-02-11T10:15:35.964Z,12.43
2023-02-11T10:18:45.893Z,10.48
2023-02-11T10:22:18.893Z,10.77
2023-02-11T10:25:38.888Z,9.95
2023-02-11T10:28:44.594Z,11.15
2023-02-11T10:31:47.813Z,10.30
2023-02-11T10:34:49.800Z,10.68
2023-02-11T10:37:51.597Z,11.15
2023-02-11T10:40:55.739Z,10.65
2023-02-11T10:44:00.138Z,10.68
2023-02-11T10:47:13.635Z,13.48
2023-02-11T10:50:28.000Z,11.45
2023-02-11T10:53:29.649Z,12.57
2023-02-11T10:56:40.852Z,10.80
2023-02-11T10:59:43.372Z,10.93
2023-02-11T11:02:46.800Z,11.25
2023-02-11T11:06:01.856Z,11.73
2023-02-11T11:09:04.643Z,10.27
2023-02-11T11:12:06.348Z,10.40
2023-02-11T11:15:11.251Z,11.07
2023-02-11T11:18:23.411Z,12.93
2023-02-11T11:21:30.496Z,11.73
2023-02-11T11:24:45.036Z,11.70
2023-02-11T11:27:53.233Z,11.98
2023-02-11T11:30:56.916Z,12.20
2023-02-11T11:34:01.526Z,12.70
2023-02-11T11:37:11.877Z,12.98
2023-02-11T11:40:13.491Z,11.45
2023-02-11T11:43:15.212Z,12.13
2023-02-11T11:46:23.732Z,12.45
2023-02-11T11:49:33.018Z,12.77
2023-02-11T11:52:46.404Z,13.38
2023-02-11T11:56:04.224Z,13.63
2023-02-11T11:59:16.506Z,12.55
2023-02-11T12:02:20.893Z,13.52
2023-02-11T12:05:33.087Z,14.13
2023-02-11T12:08:51.048Z,10.90
2023-02-11T12:12:26.805Z,11.73
2023-02-11T12:15:28.351Z,11.65
2023-02-11T12:18:44.935Z,9.52
2023-02-11T12:21:56.839Z,9.52
2023-02-11T12:25:21.637Z,9.02
2023-02-11T12:28:38.489Z,8.13
2023-02-11T12:31:49.348Z,7.72
2023-02-11T12:35:07.551Z,8.40
2023-02-11T12:38:20.105Z,8.00
2023-02-11T12:42:00.924Z,7.55
2023-02-11T12:45:05.603Z,7.68
2023-02-11T12:48:28.343Z,7.65
2023-02-11T12:52:14.262Z,7.63
2023-02-11T12:55:37.227Z,7.43
2023-02-11T12:58:45.390Z,7.80
2023-02-11T13:01:50.903Z,8.55
2023-02-11T13:04:57.191Z,7.00
2023-02-11T13:08:20.988Z,8.13
2023-02-11T13:11:35.010Z,7.78
2023-02-11T13:14:41.196Z,8.35
2023-02-11T13:18:02.815Z,7.95
2023-02-11T13:21:31.069Z,7.32
2023-02-11T13:24:48.049Z,7.15
2023-02-11T13:27:58.414Z,6.47
2023-02-11T13:31:03.948Z,7.40
2023-02-11T13:34:23.851Z,7.32
2023-02-11T13:37:37.409Z,6.70
2023-02-11T13:40:40.073Z,7.38
2023-02-11T13:43:41.872Z,7.05
2023-02-11T13:46:56.031Z,6.53
2023-02-11T13:49:59.993Z,6.60
2023-02-11T13:53:03.830Z,6.20
2023-02-11T13:56:11.420Z,5.10
2023-02-11T13:59:24.986Z,5.88
2023-02-11T14:02:54.196Z,6.30
2023-02-11T14:06:26.777Z,7.90
2023-02-11T14:09:36.015Z,7.32
2023-02-11T14:12:37.725Z,7.72
2023-02-11T14:15:40.846Z,8.00
2023-02-11T14:18:45.375Z,8.35
2023-02-11T14:21:47.316Z,10.55
2023-02-11T14:25:04.384Z,9.23
2023-02-11T14:28:21.659Z,9.90
2023-02-11T14:31:55.097Z,8.02
2023-02-11T14:35:24.355Z,9.00
2023-02-11T14:38:43.433Z,9.43
2023-02-11T14:41:48.925Z,9.40
2023-02-11T14:44:52.519Z,9.63
2023-02-11T14:48:08.458Z,9.63
2023-02-11T14:51:23.326Z,9.43
2023-02-11T14:54:28.120Z,9.13
2023-02-11T14:57:30.017Z,8.32
2023-02-11T15:00:31.745Z,8.43
2023-02-11T15:03:42.011Z,8.82
2023-02-11T15:06:47.644Z,9.27
2023-02-11T15:09:52.931Z,8.57
2023-02-11T15:12:55.349Z,7.78
2023-02-11T15:16:10.024Z,8.32
2023-02-11T15:19:28.772Z,8.27
2023-02-11T15:22:34.205Z,8.27
2023-02-11T15:25:43.487Z,8.68
2023-02-11T15:28:52.141Z,7.72
2023-02-11T15:32:06.078Z,8.02
2023-02-11T15:35:11.330Z,7.95
2023-02-11T15:38:13.505Z,8.65
2023-02-11T15:41:36.880Z,8.50
2023-02-11T15:44:38.554Z,8.88
2023-02-11T15:47:46.955Z,8.75
2023-02-11T15:50:55.206Z,8.35
2023-02-11T15:54:01.741Z,9.35
2023-02-11T15:57:07.543Z,9.73
2023-02-11T16:00:17.687Z,12.15
2023-02-11T16:03:22.487Z,8.98
2023-02-11T16:06:36.505Z,8.82
2023-02-11T16:09:39.813Z,9.43
2023-02-11T16:12:41.450Z,9.60
2023-02-11T16:15:46.992Z,10.50
2023-02-11T16:19:04.273Z,8.90
2023-02-11T16:22:10.620Z,11.00
2023-02-11T16:25:20.764Z,10.20
2023-02-11T16:28:22.480Z,8.82
2023-02-11T16:31:33.262Z,10.43
2023-02-11T16:34:35.541Z,8.35
2023-02-11T16:37:38.069Z,10.18
2023-02-11T16:40:39.763Z,8.23
2023-02-11T16:43:41.358Z,8.85
2023-02-11T16:46:43.703Z,9.70
2023-02-11T16:49:45.417Z,8.95
2023-02-11T16:52:47.269Z,8.82
2023-02-11T16:55:49.686Z,9.68
2023-02-11T16:58:51.275Z,9.18
2023-02-11T17:01:54.555Z,8.40
2023-02-11T17:04:59.061Z,8.85
2023-02-11T17:08:02.419Z,11.05
2023-02-11T17:11:04.441Z,8.00
2023-02-11T17:14:06.177Z,8.55
2023-02-11T17:17:09.134Z,8.45
2023-02-11T17:20:13.042Z,8.45
2023-02-11T17:23:14.744Z,7.85
2023-02-11T17:26:16.424Z,8.82
2023-02-11T17:29:21.232Z,9.13
2023-02-11T17:32:22.856Z,9.07
2023-02-11T17:35:24.582Z,9.27
2023-02-11T17:38:26.285Z,11.05
2023-02-11T17:41:28.557Z,9.15
2023-02-11T17:44:30.141Z,8.52
2023-02-11T17:47:31.788Z,8.80
2023-02-11T17:50:36.692Z,8.93
2023-02-11T17:53:38.297Z,9.45
2023-02-11T17:56:40.647Z,9.68
2023-02-11T17:59:42.218Z,9.63
2023-02-11T18:02:43.885Z,9.07
2023-02-11T18:05:45.460Z,9.13
2023-02-11T18:08:47.656Z,9.77
2023-02-11T18:11:50.579Z,8.85
2023-02-11T18:14:57.976Z,8.95
2023-02-11T18:17:59.864Z,9.75
2023-02-11T18:21:08.619Z,9.70
2023-02-11T18:24:10.316Z,7.93
2023-02-11T18:27:13.210Z,9.93
2023-02-11T18:30:17.958Z,8.75
2023-02-11T18:33:19.573Z,9.13
2023-02-11T18:36:22.358Z,8.80
2023-02-11T18:39:24.358Z,9.00
2023-02-11T18:42:26.160Z,7.53
2023-02-11T18:45:29.118Z,8.55
2023-02-11T18:48:30.847Z,8.95
2023-02-11T18:51:32.934Z,8.93
2023-02-11T18:54:34.487Z,8.43
2023-02-11T18:57:36.152Z,8.63
2023-02-11T19:00:41.621Z,9.07
2023-02-11T19:03:44.822Z,9.05
2023-02-11T19:06:49.473Z,10.48
2023-02-11T19:09:51.091Z,13.18
2023-02-11T19:12:56.458Z,11.35
2023-02-11T19:15:58.093Z,12.82
2023-02-11T19:18:59.683Z,12.00
2023-02-11T19:22:02.786Z,11.15
2023-02-11T19:25:04.616Z,9.82
2023-02-11T19:28:06.275Z,11.10
2023-02-11T19:31:09.121Z,10.23
2023-02-11T19:34:14.051Z,10.75
2023-02-11T19:37:15.775Z,10.77
2023-02-11T19:40:17.664Z,10.57
2023-02-11T19:43:19.270Z,10.70
2023-02-11T19:46:21.667Z,9.55
2023-02-11T19:49:24.580Z,10.38
2023-02-11T19:52:26.187Z,10.43
2023-02-11T19:55:27.864Z,10.75
2023-02-11T19:58:29.862Z,10.32
2023-02-11T20:01:31.856Z,10.95
2023-02-11T20:04:33.522Z,11.48
2023-02-11T20:07:35.524Z,10.88
2023-02-11T20:10:37.196Z,10.02
2023-02-11T20:13:39.666Z,11.00
2023-02-11T20:16:48.719Z,10.77
2023-02-11T20:19:50.977Z,11.73
2023-02-11T20:22:52.617Z,11.20
2023-02-11T20:25:54.429Z,9.85
2023-02-11T20:28:57.446Z,9.02
2023-02-11T20:31:59.316Z,10.93
2023-02-11T20:35:00.976Z,10.48
2023-02-11T20:38:03.679Z,11.32
2023-02-11T20:41:08.015Z,10.88
2023-02-11T20:44:10.596Z,11.20
2023-02-11T20:47:12.463Z,11.55
2023-02-11T20:50:14.135Z,10.77
2023-02-11T20:53:15.749Z,11.77
2023-02-11T20:56:20.151Z,11.48
2023-02-11T20:59:22.587Z,10.13
2023-02-11T21:02:24.924Z,11.48
2023-02-11T21:05:26.772Z,10.48
2023-02-11T21:08:28.366Z,11.85
2023-02-11T21:11:31.126Z,10.70
2023-02-11T21:14:34.002Z,10.65
2023-02-11T21:17:35.644Z,10.93
2023-02-11T21:20:37.352Z,11.80
2023-02-11T21:23:40.278Z,13.15
2023-02-11T21:26:41.981Z,11.23
2023-02-11T21:29:53.719Z,9.85
2023-02-11T21:32:58.294Z,12.63
2023-02-11T21:36:02.597Z,11.32
2023-02-11T21:39:04.345Z,10.95
2023-02-11T21:42:06.189Z,10.18
2023-02-11T21:45:08.827Z,10.25
2023-02-11T21:48:11.565Z,9.85
2023-02-11T21:51:16.032Z,9.52
2023-02-11T21:54:18.866Z,9.57
2023-02-11T21:57:20.460Z,9.45
2023-02-11T22:00:22.224Z,8.93
2023-02-11T22:03:23.948Z,10.23
2023-02-11T22:06:30.681Z,9.48
2023-02-11T22:12:33.934Z,8.93
2023-02-11T22:15:35.573Z,10.90
2023-02-11T22:18:37.717Z,10.43
2023-02-11T22:21:39.485Z,9.65
2023-02-11T22:24:41.726Z,8.70
2023-02-11T22:27:43.551Z,9.35
2023-02-11T22:30:45.240Z,10.55
2023-02-11T22:33:47.116Z,8.38
2023-02-11T22:36:48.789Z,10.07
2023-02-11T22:39:50.432Z,9.52
2023-02-11T22:42:52.305Z,11.00
2023-02-11T22:45:56.435Z,9.93
2023-02-11T22:48:58.471Z,8.30
2023-02-11T22:52:00.379Z,10.02
2023-02-11T22:55:02.567Z,9.57
2023-02-11T22:58:04.475Z,13.35
2023-02-11T23:01:06.602Z,14.27
2023-02-11T23:04:11.579Z,9.50
2023-02-11T23:07:13.389Z,10.05
2023-02-11T23:10:15.578Z,9.55
2023-02-11T23:13:17.293Z,8.73
2023-02-11T23:16:22.524Z,9.07
2023-02-11T23:19:24.228Z,8.38
2023-02-11T23:22:25.864Z,8.45
2023-02-11T23:25:27.552Z,8.80
2023-02-11T23:28:29.447Z,7.82
2023-02-11T23:31:35.112Z,6.85
2023-02-11T23:34:36.888Z,8.73
2023-02-11T23:37:38.510Z,8.70
2023-02-11T23:40:40.146Z,8.93
2023-02-11T23:43:42.129Z,8.35
2023-02-11T23:46:43.743Z,7.85
2023-02-11T23:49:45.330Z,7.85
2023-02-11T23:52:46.993Z,7.65
2023-02-11T23:55:49.059Z,8.00
2023-02-11T23:58:52.806Z,7.63
